sensor_id;sensor_type;location;lat;lon;timestamp;pressure;altitude;pressure_sealevel;temperature;humidity
71361;BME280;59166;48.908;1.870;2023-02-17T00:04:52;101316.22;;;11.41;100.00
71361;BME280;59166;48.908;1.870;2023-02-17T00:09:53;101312.13;;;11.38;100.00
71361;BME280;59166;48.908;1.870;2023-02-17T00:14:56;101308.66;;;11.43;100.00
71361;BME280;59166;48.908;1.870;2023-02-17T00:19:57;101307.34;;;11.45;100.00
71361;BME280;59166;48.908;1.870;2023-02-17T00:24:58;101309.59;;;11.48;100.00
71361;BME280;59166;48.908;1.870;2023-02-17T00:30:00;101307.97;;;11.47;100.00
71361;BME280;59166;48.908;1.870;2023-02-17T00:35:01;101311.50;;;11.48;100.00
71361;BME280;59166;48.908;1.870;2023-02-17T00:40:02;101312.63;;;11.52;100.00
71361;BME280;59166;48.908;1.870;2023-02-17T00:45:05;101301.50;;;11.48;100.00
71361;BME280;59166;48.908;1.870;2023-02-17T00:50:07;101312.06;;;11.50;100.00
71361;BME280;59166;48.908;1.870;2023-02-17T00:55:08;101312.06;;;11.50;100.00
71361;BME280;59166;48.908;1.870;2023-02-17T01:00:11;101312.41;;;11.53;100.00
71361;BME280;59166;48.908;1.870;2023-02-17T01:05:12;101309.91;;;11.52;100.00
71361;BME280;59166;48.908;1.870;2023-02-17T01:10:13;101305.59;;;11.51;100.00
71361;BME280;59166;48.908;1.870;2023-02-17T01:15:16;101309.13;;;11.51;100.00
71361;BME280;59166;48.908;1.870;2023-02-17T01:20:17;101306.66;;;11.50;100.00
71361;BME280;59166;48.908;1.870;2023-02-17T01:25:18;101300.06;;;11.46;100.00
71361;BME280;59166;48.908;1.870;2023-02-17T01:30:20;101299.00;;;11.47;100.00
71361;BME280;59166;48.908;1.870;2023-02-17T01:35:21;101303.38;;;11.48;100.00
71361;BME280;59166;48.908;1.870;2023-02-17T01:40:22;101304.91;;;11.44;100.00
71361;BME280;59166;48.908;1.870;2023-02-17T01:45:45;101304.66;;;11.45;100.00
71361;BME280;59166;48.908;1.870;2023-02-17T01:50:52;101301.72;;;11.47;100.00
71361;BME280;59166;48.908;1.870;2023-02-17T01:55:54;101299.00;;;11.47;100.00
71361;BME280;59166;48.908;1.870;2023-02-17T02:00:58;101295.75;;;11.45;100.00
71361;BME280;59166;48.908;1.870;2023-02-17T02:06:03;101295.41;;;11.41;100.00
71361;BME280;59166;48.908;1.870;2023-02-17T02:11:05;101291.88;;;11.41;100.00
71361;BME280;59166;48.908;1.870;2023-02-17T02:16:13;101281.88;;;11.41;100.00
71361;BME280;59166;48.908;1.870;2023-02-17T02:27:44;101277.25;;;11.42;100.00
71361;BME280;59166;48.908;1.870;2023-02-17T02:32:56;101281.13;;;11.46;100.00
71361;BME280;59166;48.908;1.870;2023-02-17T02:38:02;101283.00;;;11.45;100.00
71361;BME280;59166;48.908;1.870;2023-02-17T02:43:04;101271.06;;;11.41;100.00
71361;BME280;59166;48.908;1.870;2023-02-17T02:48:07;101274.09;;;11.45;100.00
71361;BME280;59166;48.908;1.870;2023-02-17T02:53:34;101266.56;;;11.47;100.00
71361;BME280;59166;48.908;1.870;2023-02-17T02:58:46;101269.81;;;11.49;100.00
71361;BME280;59166;48.908;1.870;2023-02-17T03:03:59;101265.84;;;11.51;100.00
71361;BME280;59166;48.908;1.870;2023-02-17T03:09:05;101262.31;;;11.51;100.00
71361;BME280;59166;48.908;1.870;2023-02-17T03:14:09;101259.25;;;11.47;100.00
71361;BME280;59166;48.908;1.870;2023-02-17T03:19:13;101257.38;;;11.48;100.00
71361;BME280;59166;48.908;1.870;2023-02-17T03:24:15;101258.78;;;11.50;100.00
71361;BME280;59166;48.908;1.870;2023-02-17T03:29:15;101272.03;;;11.52;100.00
71361;BME280;59166;48.908;1.870;2023-02-17T03:34:18;101270.00;;;11.59;100.00
71361;BME280;59166;48.908;1.870;2023-02-17T03:39:19;101267.91;;;11.61;100.00
71361;BME280;59166;48.908;1.870;2023-02-17T03:44:20;101262.97;;;11.58;100.00
71361;BME280;59166;48.908;1.870;2023-02-17T03:49:22;101261.56;;;11.55;100.00
71361;BME280;59166;48.908;1.870;2023-02-17T03:54:23;101268.19;;;11.48;100.00
71361;BME280;59166;48.908;1.870;2023-02-17T03:59:24;101273.84;;;11.46;100.00
71361;BME280;59166;48.908;1.870;2023-02-17T04:04:26;101274.09;;;11.45;100.00
71361;BME280;59166;48.908;1.870;2023-02-17T04:09:27;101275.16;;;11.44;100.00
71361;BME280;59166;48.908;1.870;2023-02-17T04:14:28;101280.78;;;11.42;100.00
71361;BME280;59166;48.908;1.870;2023-02-17T04:19:30;101274.69;;;11.35;100.00
71361;BME280;59166;48.908;1.870;2023-02-17T04:24:31;101285.28;;;11.36;100.00
71361;BME280;59166;48.908;1.870;2023-02-17T04:29:32;101299.66;;;11.37;100.00
71361;BME280;59166;48.908;1.870;2023-02-17T04:34:35;101300.47;;;11.38;100.00
71361;BME280;59166;48.908;1.870;2023-02-17T04:39:36;101301.53;;;11.36;100.00
71361;BME280;59166;48.908;1.870;2023-02-17T04:44:36;101295.88;;;11.38;100.00
71361;BME280;59166;48.908;1.870;2023-02-17T04:49:39;101295.41;;;11.41;100.00
71361;BME280;59166;48.908;1.870;2023-02-17T04:54:40;101299.66;;;11.37;100.00
71361;BME280;59166;48.908;1.870;2023-02-17T04:59:41;101300.47;;;11.38;100.00
71361;BME280;59166;48.908;1.870;2023-02-17T05:04:43;101302.22;;;11.44;100.00
71361;BME280;59166;48.908;1.870;2023-02-17T05:09:44;101300.00;;;11.41;100.00
71361;BME280;59166;48.908;1.870;2023-02-17T05:14:45;101299.16;;;11.40;100.00
71361;BME280;59166;48.908;1.870;2023-02-17T05:19:47;101309.97;;;11.40;100.00
71361;BME280;59166;48.908;1.870;2023-02-17T05:24:49;101325.16;;;11.41;100.00
71361;BME280;59166;48.908;1.870;2023-02-17T05:29:49;101325.72;;;11.43;100.00
71361;BME280;59166;48.908;1.870;2023-02-17T05:34:52;101333.13;;;11.48;100.00
71361;BME280;59166;48.908;1.870;2023-02-17T05:39:53;101331.25;;;11.48;100.00
71361;BME280;59166;48.908;1.870;2023-02-17T05:44:54;101324.41;;;11.46;100.00
71361;BME280;59166;48.908;1.870;2023-02-17T05:49:56;101335.84;;;11.48;100.00
71361;BME280;59166;48.908;1.870;2023-02-17T05:54:57;101338.88;;;11.51;100.00
71361;BME280;59166;48.908;1.870;2023-02-17T05:59:58;101338.88;;;11.51;100.00
71361;BME280;59166;48.908;1.870;2023-02-17T06:05:00;101343.56;;;11.56;100.00
71361;BME280;59166;48.908;1.870;2023-02-17T06:10:01;101355.47;;;11.55;100.00
71361;BME280;59166;48.908;1.870;2023-02-17T06:15:02;101369.91;;;11.60;100.00
71361;BME280;59166;48.908;1.870;2023-02-17T06:20:06;101373.31;;;11.56;100.00
71361;BME280;59166;48.908;1.870;2023-02-17T06:25:08;101377.47;;;11.58;100.00
71361;BME280;59166;48.908;1.870;2023-02-17T06:30:10;101373.94;;;11.58;100.00
71361;BME280;59166;48.908;1.870;2023-02-17T06:35:12;101377.91;;;11.55;100.00
71361;BME280;59166;48.908;1.870;2023-02-17T06:40:14;101389.00;;;11.54;100.00
71361;BME280;59166;48.908;1.870;2023-02-17T06:45:15;101396.06;;;11.55;100.00
71361;BME280;59166;48.908;1.870;2023-02-17T06:50:17;101400.38;;;11.56;100.00
71361;BME280;59166;48.908;1.870;2023-02-17T06:55:18;101405.47;;;11.52;100.00
71361;BME280;59166;48.908;1.870;2023-02-17T07:00:20;101405.47;;;11.52;100.00
71361;BME280;59166;48.908;1.870;2023-02-17T07:05:22;101409.25;;;11.51;100.00
71361;BME280;59166;48.908;1.870;2023-02-17T07:10:23;101415.22;;;11.53;100.00
71361;BME280;59166;48.908;1.870;2023-02-17T07:15:24;101415.22;;;11.53;100.00
71361;BME280;59166;48.908;1.870;2023-02-17T07:20:26;101426.28;;;11.52;100.00
71361;BME280;59166;48.908;1.870;2023-02-17T07:25:27;101423.72;;;11.45;100.00
71361;BME280;59166;48.908;1.870;2023-02-17T07:30:28;101433.13;;;11.43;100.00
71361;BME280;59166;48.908;1.870;2023-02-17T07:35:30;101431.13;;;11.50;100.00
71361;BME280;59166;48.908;1.870;2023-02-17T07:40:31;101430.06;;;11.51;100.00
71361;BME280;59166;48.908;1.870;2023-02-17T07:45:33;101428.41;;;11.50;100.00
71361;BME280;59166;48.908;1.870;2023-02-17T07:50:36;101433.81;;;11.50;100.00
71361;BME280;59166;48.908;1.870;2023-02-17T07:55:37;101436.50;;;11.61;100.00
71361;BME280;59166;48.908;1.870;2023-02-17T08:00:38;101445.69;;;11.60;100.00
71361;BME280;59166;48.908;1.870;2023-02-17T08:05:40;101444.84;;;11.60;100.00
71361;BME280;59166;48.908;1.870;2023-02-17T08:10:41;101449.56;;;11.64;100.00
71361;BME280;59166;48.908;1.870;2023-02-17T08:15:41;101452.38;;;11.69;100.00
71361;BME280;59166;48.908;1.870;2023-02-17T08:20:43;101456.25;;;11.73;100.00
71361;BME280;59166;48.908;1.870;2023-02-17T08:25:44;101461.66;;;11.73;100.00
71361;BME280;59166;48.908;1.870;2023-02-17T08:30:44;101467.91;;;11.74;100.00
71361;BME280;59166;48.908;1.870;2023-02-17T08:35:46;101467.91;;;11.74;100.00
71361;BME280;59166;48.908;1.870;2023-02-17T08:40:47;101475.41;;;11.72;100.00
71361;BME280;59166;48.908;1.870;2023-02-17T08:45:48;101470.94;;;11.77;100.00
71361;BME280;59166;48.908;1.870;2023-02-17T08:50:50;101474.63;;;11.71;100.00
71361;BME280;59166;48.908;1.870;2023-02-17T08:55:50;101466.25;;;11.73;100.00
71361;BME280;59166;48.908;1.870;2023-02-17T09:00:51;101469.06;;;11.78;100.00
71361;BME280;59166;48.908;1.870;2023-02-17T09:05:54;101465.47;;;11.89;100.00
71361;BME280;59166;48.908;1.870;2023-02-17T09:10:55;101478.88;;;11.96;100.00
71361;BME280;59166;48.908;1.870;2023-02-17T09:15:57;101475.91;;;12.09;100.00
71361;BME280;59166;48.908;1.870;2023-02-17T09:21:04;101480.59;;;12.13;100.00
71361;BME280;59166;48.908;1.870;2023-02-17T09:26:06;101475.16;;;12.13;100.00
71361;BME280;59166;48.908;1.870;2023-02-17T09:31:09;101483.69;;;12.05;100.00
71361;BME280;59166;48.908;1.870;2023-02-17T09:36:12;101490.16;;;12.04;100.00
71361;BME280;59166;48.908;1.870;2023-02-17T09:41:16;101483.78;;;12.10;100.00
71361;BME280;59166;48.908;1.870;2023-02-17T09:46:20;101484.13;;;12.14;100.00
71361;BME280;59166;48.908;1.870;2023-02-17T09:51:29;101487.94;;;12.29;100.00
71361;BME280;59166;48.908;1.870;2023-02-17T09:56:36;101490.22;;;12.32;100.00
71361;BME280;59166;48.908;1.870;2023-02-17T10:01:39;101489.91;;;12.46;100.00
71361;BME280;59166;48.908;1.870;2023-02-17T10:06:44;101496.03;;;12.69;100.00
71361;BME280;59166;48.908;1.870;2023-02-17T10:11:51;101502.84;;;12.72;100.00
71361;BME280;59166;48.908;1.870;2023-02-17T10:17:00;101501.94;;;12.83;100.00
71361;BME280;59166;48.908;1.870;2023-02-17T10:22:06;101501.19;;;13.04;100.00
71361;BME280;59166;48.908;1.870;2023-02-17T10:27:29;101507.44;;;13.21;100.00
71361;BME280;59166;48.908;1.870;2023-02-17T10:32:40;101503.81;;;13.32;100.00
71361;BME280;59166;48.908;1.870;2023-02-17T10:37:48;101503.13;;;13.42;100.00
71361;BME280;59166;48.908;1.870;2023-02-17T10:42:53;101500.81;;;13.51;100.00
71361;BME280;59166;48.908;1.870;2023-02-17T10:47:57;101503.59;;;13.56;100.00
71361;BME280;59166;48.908;1.870;2023-02-17T10:53:11;101512.25;;;13.53;100.00
71361;BME280;59166;48.908;1.870;2023-02-17T10:58:15;101517.66;;;13.53;100.00
71361;BME280;59166;48.908;1.870;2023-02-17T11:03:19;101519.31;;;13.54;100.00
71361;BME280;59166;48.908;1.870;2023-02-17T11:08:28;101521.53;;;13.57;100.00
71361;BME280;59166;48.908;1.870;2023-02-17T11:13:34;101522.50;;;13.67;100.00
71361;BME280;59166;48.908;1.870;2023-02-17T11:18:48;101524.22;;;13.73;100.00
71361;BME280;59166;48.908;1.870;2023-02-17T11:23:54;101515.91;;;13.80;100.00
71361;BME280;59166;48.908;1.870;2023-02-17T11:29:06;101516.97;;;14.01;99.99
71361;BME280;59166;48.908;1.870;2023-02-17T11:34:12;101517.97;;;14.16;99.26
71361;BME280;59166;48.908;1.870;2023-02-17T11:39:18;101513.34;;;14.38;97.56
71361;BME280;59166;48.908;1.870;2023-02-17T11:44:23;101510.75;;;14.54;95.51
71361;BME280;59166;48.908;1.870;2023-02-17T11:55:10;101497.97;;;14.81;94.61
71361;BME280;59166;48.908;1.870;2023-02-17T12:00:16;101488.34;;;15.00;93.36
71361;BME280;59166;48.908;1.870;2023-02-17T12:05:22;101468.06;;;15.18;91.26
71361;BME280;59166;48.908;1.870;2023-02-17T12:10:37;101464.03;;;15.25;91.03
71361;BME280;59166;48.908;1.870;2023-02-17T12:15:53;101456.00;;;15.51;89.34
71361;BME280;59166;48.908;1.870;2023-02-17T12:21:04;101460.16;;;15.63;91.09
71361;BME280;59166;48.908;1.870;2023-02-17T12:26:10;101458.81;;;15.66;88.13
71361;BME280;59166;48.908;1.870;2023-02-17T12:31:23;101466.94;;;15.56;89.20
71361;BME280;59166;48.908;1.870;2023-02-17T12:36:33;101462.44;;;15.29;90.80
71361;BME280;59166;48.908;1.870;2023-02-17T12:41:39;101456.41;;;15.22;91.13
71361;BME280;59166;48.908;1.870;2023-02-17T12:46:43;101457.25;;;15.28;90.71
71361;BME280;59166;48.908;1.870;2023-02-17T12:51:47;101461.19;;;15.57;90.01
71361;BME280;59166;48.908;1.870;2023-02-17T12:56:57;101464.00;;;15.72;88.73
71361;BME280;59166;48.908;1.870;2023-02-17T13:02:01;101461.56;;;15.76;87.28
71361;BME280;59166;48.908;1.870;2023-02-17T13:07:24;101459.09;;;15.69;86.72
71361;BME280;59166;48.908;1.870;2023-02-17T13:12:35;101456.91;;;15.71;87.52
71361;BME280;59166;48.908;1.870;2023-02-17T13:17:37;101462.06;;;15.68;87.26
71361;BME280;59166;48.908;1.870;2023-02-17T13:22:40;101457.75;;;15.72;86.52
71361;BME280;59166;48.908;1.870;2023-02-17T13:27:42;101458.53;;;15.62;86.92
71361;BME280;59166;48.908;1.870;2023-02-17T13:32:43;101459.88;;;15.60;88.36
71361;BME280;59166;48.908;1.870;2023-02-17T13:37:45;101449.75;;;15.50;86.39
71361;BME280;59166;48.908;1.870;2023-02-17T13:42:47;101442.41;;;15.56;86.63
71361;BME280;59166;48.908;1.870;2023-02-17T13:47:50;101453.38;;;15.66;86.30
71361;BME280;59166;48.908;1.870;2023-02-17T13:52:51;101443.59;;;15.75;85.91
71361;BME280;59166;48.908;1.870;2023-02-17T13:57:55;101461.00;;;15.69;85.78
71361;BME280;59166;48.908;1.870;2023-02-17T14:02:58;101453.94;;;15.73;86.88
71361;BME280;59166;48.908;1.870;2023-02-17T14:08:05;101451.72;;;15.65;85.72
71361;BME280;59166;48.908;1.870;2023-02-17T14:13:09;101456.09;;;15.66;86.06
71361;BME280;59166;48.908;1.870;2023-02-17T14:18:12;101452.81;;;15.64;86.57
71361;BME280;59166;48.908;1.870;2023-02-17T14:23:13;101453.91;;;15.63;85.92
71361;BME280;59166;48.908;1.870;2023-02-17T14:28:19;101446.78;;;15.62;86.18
71361;BME280;59166;48.908;1.870;2023-02-17T14:33:22;101441.88;;;15.59;86.77
71361;BME280;59166;48.908;1.870;2023-02-17T14:38:26;101448.50;;;15.73;86.27
71361;BME280;59166;48.908;1.870;2023-02-17T14:43:28;101455.00;;;15.72;86.14
71361;BME280;59166;48.908;1.870;2023-02-17T14:48:29;101456.63;;;15.63;86.80
71361;BME280;59166;48.908;1.870;2023-02-17T14:53:32;101458.47;;;15.52;87.21
71361;BME280;59166;48.908;1.870;2023-02-17T14:58:35;101460.66;;;15.55;87.08
71361;BME280;59166;48.908;1.870;2023-02-17T15:03:35;101465.56;;;15.58;86.88
71361;BME280;59166;48.908;1.870;2023-02-17T15:08:36;101456.88;;;15.61;86.21
71361;BME280;59166;48.908;1.870;2023-02-17T15:13:39;101452.25;;;15.62;86.27
71361;BME280;59166;48.908;1.870;2023-02-17T15:18:39;101461.00;;;15.64;86.35
71361;BME280;59166;48.908;1.870;2023-02-17T15:23:40;101463.72;;;15.69;85.83
71361;BME280;59166;48.908;1.870;2023-02-17T15:28:42;101464.56;;;15.74;87.29
71361;BME280;59166;48.908;1.870;2023-02-17T15:33:43;101461.53;;;15.71;85.47
71361;BME280;59166;48.908;1.870;2023-02-17T15:38:44;101459.88;;;15.60;83.26
71361;BME280;59166;48.908;1.870;2023-02-17T15:43:46;101466.38;;;15.54;84.75
71361;BME280;59166;48.908;1.870;2023-02-17T15:48:47;101466.03;;;15.40;84.54
71361;BME280;59166;48.908;1.870;2023-02-17T15:53:48;101463.56;;;15.33;84.26
71361;BME280;59166;48.908;1.870;2023-02-17T15:58:50;101462.69;;;15.28;84.96
71361;BME280;59166;48.908;1.870;2023-02-17T16:03:52;101470.03;;;15.27;84.67
71361;BME280;59166;48.908;1.870;2023-02-17T16:08:54;101476.81;;;15.20;84.92
71361;BME280;59166;48.908;1.870;2023-02-17T16:13:56;101484.91;;;15.10;84.57
71361;BME280;59166;48.908;1.870;2023-02-17T16:18:57;101491.66;;;15.02;85.81
71361;BME280;59166;48.908;1.870;2023-02-17T16:23:58;101492.69;;;14.96;85.85
71361;BME280;59166;48.908;1.870;2023-02-17T16:29:00;101499.44;;;14.93;86.14
71361;BME280;59166;48.908;1.870;2023-02-17T16:34:01;101495.31;;;14.91;87.36
71361;BME280;59166;48.908;1.870;2023-02-17T16:39:05;101494.78;;;14.89;87.55
71361;BME280;59166;48.908;1.870;2023-02-17T16:44:12;101495.31;;;14.91;87.38
71361;BME280;59166;48.908;1.870;2023-02-17T16:49:19;101495.53;;;14.84;86.41
71361;BME280;59166;48.908;1.870;2023-02-17T16:54:20;101502.56;;;14.75;87.45
71361;BME280;59166;48.908;1.870;2023-02-17T16:59:23;101507.59;;;14.62;88.75
71361;BME280;59166;48.908;1.870;2023-02-17T17:04:24;101510.16;;;14.47;89.33
71361;BME280;59166;48.908;1.870;2023-02-17T17:09:25;101510.00;;;14.31;90.36
71361;BME280;59166;48.908;1.870;2023-02-17T17:14:27;101504.38;;;14.16;90.88
71361;BME280;59166;48.908;1.870;2023-02-17T17:19:27;101509.59;;;13.96;92.26
71361;BME280;59166;48.908;1.870;2023-02-17T17:24:28;101497.13;;;13.78;93.37
71361;BME280;59166;48.908;1.870;2023-02-17T17:29:30;101512.13;;;13.64;94.07
71361;BME280;59166;48.908;1.870;2023-02-17T17:34:31;101515.78;;;13.53;95.32
71361;BME280;59166;48.908;1.870;2023-02-17T17:39:31;101513.16;;;13.41;95.66
71361;BME280;59166;48.908;1.870;2023-02-17T17:44:33;101516.00;;;13.30;95.84
71361;BME280;59166;48.908;1.870;2023-02-17T17:49:34;101524.22;;;13.18;96.38
71361;BME280;59166;48.908;1.870;2023-02-17T17:54:35;101533.66;;;13.16;97.08
71361;BME280;59166;48.908;1.870;2023-02-17T17:59:37;101549.69;;;13.17;97.32
71361;BME280;59166;48.908;1.870;2023-02-17T18:04:37;101559.47;;;13.18;96.46
71361;BME280;59166;48.908;1.870;2023-02-17T18:09:38;101561.03;;;13.14;96.53
71361;BME280;59166;48.908;1.870;2023-02-17T18:14:41;101577.25;;;13.09;96.46
71361;BME280;59166;48.908;1.870;2023-02-17T18:19:43;101574.75;;;13.08;96.45
71361;BME280;59166;48.908;1.870;2023-02-17T18:24:44;101582.25;;;13.01;96.94
71361;BME280;59166;48.908;1.870;2023-02-17T18:29:47;101591.97;;;12.97;97.20
71361;BME280;59166;48.908;1.870;2023-02-17T18:34:48;101599.50;;;12.95;96.98
71361;BME280;59166;48.908;1.870;2023-02-17T18:39:48;101598.94;;;12.93;97.35
71361;BME280;59166;48.908;1.870;2023-02-17T18:44:51;101607.56;;;12.89;97.65
71361;BME280;59166;48.908;1.870;2023-02-17T18:49:52;101603.41;;;12.87;96.96
71361;BME280;59166;48.908;1.870;2023-02-17T18:54:53;101607.38;;;12.79;97.10
71361;BME280;59166;48.908;1.870;2023-02-17T18:59:56;101604.47;;;12.69;97.50
71361;BME280;59166;48.908;1.870;2023-02-17T19:04:57;101609.78;;;12.64;97.49
71361;BME280;59166;48.908;1.870;2023-02-17T19:09:58;101608.28;;;12.57;97.97
71361;BME280;59166;48.908;1.870;2023-02-17T19:15:01;101617.22;;;12.57;98.16
71361;BME280;59166;48.908;1.870;2023-02-17T19:20:02;101619.25;;;12.50;98.57
71361;BME280;59166;48.908;1.870;2023-02-17T19:25:03;101618.44;;;12.50;98.51
71361;BME280;59166;48.908;1.870;2023-02-17T19:30:08;101615.16;;;12.48;98.87
71361;BME280;59166;48.908;1.870;2023-02-17T19:35:09;101609.16;;;12.46;99.00
71361;BME280;59166;48.908;1.870;2023-02-17T19:40:10;101611.19;;;12.38;99.41
71361;BME280;59166;48.908;1.870;2023-02-17T19:45:13;101627.91;;;12.35;99.80
71361;BME280;59166;48.908;1.870;2023-02-17T19:50:14;101624.88;;;12.32;99.72
71361;BME280;59166;48.908;1.870;2023-02-17T19:55:15;101625.09;;;12.30;99.85
71361;BME280;59166;48.908;1.870;2023-02-17T20:00:18;101615.91;;;12.31;100.00
71361;BME280;59166;48.908;1.870;2023-02-17T20:05:19;101619.78;;;12.35;99.56
71361;BME280;59166;48.908;1.870;2023-02-17T20:10:20;101628.25;;;12.27;100.00
71361;BME280;59166;48.908;1.870;2023-02-17T20:15:23;101626.84;;;12.25;100.00
71361;BME280;59166;48.908;1.870;2023-02-17T20:20:24;101627.31;;;12.22;100.00
71361;BME280;59166;48.908;1.870;2023-02-17T20:25:25;101624.38;;;12.23;100.00
71361;BME280;59166;48.908;1.870;2023-02-17T20:30:27;101627.81;;;12.19;99.87
71361;BME280;59166;48.908;1.870;2023-02-17T20:35:28;101629.69;;;12.18;99.56
71361;BME280;59166;48.908;1.870;2023-02-17T20:40:29;101634.28;;;12.18;99.78
71361;BME280;59166;48.908;1.870;2023-02-17T20:45:32;101630.75;;;12.17;99.69
71361;BME280;59166;48.908;1.870;2023-02-17T20:50:33;101636.63;;;12.14;100.00
71361;BME280;59166;48.908;1.870;2023-02-17T20:55:34;101631.56;;;12.18;99.76
71361;BME280;59166;48.908;1.870;2023-02-17T21:00:37;101632.06;;;12.15;100.00
71361;BME280;59166;48.908;1.870;2023-02-17T21:05:38;101635.81;;;12.14;100.00
71361;BME280;59166;48.908;1.870;2023-02-17T21:10:39;101630.03;;;12.10;99.81
71361;BME280;59166;48.908;1.870;2023-02-17T21:15:42;101627.25;;;12.05;99.73
71361;BME280;59166;48.908;1.870;2023-02-17T21:20:43;101621.69;;;12.00;100.00
71361;BME280;59166;48.908;1.870;2023-02-17T21:25:44;101635.84;;;12.02;99.76
71361;BME280;59166;48.908;1.870;2023-02-17T21:30:47;101631.34;;;11.96;100.00
71361;BME280;59166;48.908;1.870;2023-02-17T21:35:48;101636.66;;;11.91;100.00
71361;BME280;59166;48.908;1.870;2023-02-17T21:40:50;101628.19;;;11.87;100.00
71361;BME280;59166;48.908;1.870;2023-02-17T21:45:53;101633.84;;;11.86;100.00
71361;BME280;59166;48.908;1.870;2023-02-17T21:51:03;101635.84;;;11.91;100.00
71361;BME280;59166;48.908;1.870;2023-02-17T21:56:05;101660.09;;;11.85;100.00
71361;BME280;59166;48.908;1.870;2023-02-17T22:01:07;101646.31;;;11.87;100.00
71361;BME280;59166;48.908;1.870;2023-02-17T22:06:15;101651.63;;;11.82;100.00
71361;BME280;59166;48.908;1.870;2023-02-17T22:11:18;101642.44;;;11.83;100.00
71361;BME280;59166;48.908;1.870;2023-02-17T22:16:20;101629.84;;;11.77;100.00
71361;BME280;59166;48.908;1.870;2023-02-17T22:21:22;101632.41;;;11.72;100.00
71361;BME280;59166;48.908;1.870;2023-02-17T22:26:24;101639.50;;;11.73;100.00
71361;BME280;59166;48.908;1.870;2023-02-17T22:31:28;101637.50;;;11.80;100.00
71361;BME280;59166;48.908;1.870;2023-02-17T22:36:33;101634.31;;;11.83;100.00
71361;BME280;59166;48.908;1.870;2023-02-17T22:41:36;101639.38;;;11.79;100.00
71361;BME280;59166;48.908;1.870;2023-02-17T22:46:39;101632.78;;;11.75;100.00
71361;BME280;59166;48.908;1.870;2023-02-17T22:51:40;101642.19;;;11.73;100.00
71361;BME280;59166;48.908;1.870;2023-02-17T22:56:40;101636.44;;;11.69;100.00
71361;BME280;59166;48.908;1.870;2023-02-17T23:01:43;101647.03;;;11.71;100.00
71361;BME280;59166;48.908;1.870;2023-02-17T23:06:44;101645.38;;;11.70;100.00
71361;BME280;59166;48.908;1.870;2023-02-17T23:11:45;101643.50;;;11.70;100.00
71361;BME280;59166;48.908;1.870;2023-02-17T23:16:48;101627.59;;;11.62;100.00
71361;BME280;59166;48.908;1.870;2023-02-17T23:21:51;101636.91;;;11.55;100.00
71361;BME280;59166;48.908;1.870;2023-02-17T23:26:53;101635.00;;;11.55;100.00
71361;BME280;59166;48.908;1.870;2023-02-17T23:31:56;101639.47;;;11.50;100.00
71361;BME280;59166;48.908;1.870;2023-02-17T23:36:58;101633.72;;;11.58;100.00
71361;BME280;59166;48.908;1.870;2023-02-17T23:41:59;101633.59;;;11.53;100.00
71361;BME280;59166;48.908;1.870;2023-02-17T23:47:01;101633.59;;;11.53;100.00
71361;BME280;59166;48.908;1.870;2023-02-17T23:52:02;101623.03;;;11.51;100.00
71361;BME280;59166;48.908;1.870;2023-02-17T23:57:03;101620.66;;;11.55;100.00
